Riroil 1 — UDDB — position and weather

sailwx.info

Track history (hours):
 
Tides and Currents Weather Stations Pressure Air Temp Water Temp Dewpoint Dewpoint Depression Visibility Wind Speed Wind Dir Waves Ship Positions

Riroil 1

Last reported at 2014-Mar-02 06:33 UTC. Time now 2014-Jul-29 04:48 UTC.
Position N 51°15' E 004°23'.
Warning: this ship's position is months out of date.

Length 128 m; draft 4.9 m.

Type: Tanker. MMSI: 273446930.

Date/timePositionNaut miles runAvg speedWind from/ knotsBaromVisibWave heightAir tempDewpointWater temp
2014-Mar-02 06:33N 51°15' E 004°23'1 1.0
2014-Mar-02 05:28N 51°16' E 004°21'0 0.0
2014-Mar-02 04:32N 51°16' E 004°21'0 0.0
2014-Mar-02 03:30N 51°16' E 004°21'0 0.0
2014-Mar-02 02:32N 51°16' E 004°21'0 0.0
2014-Mar-02 01:28N 51°16' E 004°21'0 0.0
2014-Mar-02 00:26N 51°16' E 004°21'0 0.0
2014-Mar-01 23:31N 51°16' E 004°21'0 0.0
2014-Mar-01 22:19N 51°16' E 004°21'0 0.0
2014-Mar-01 21:28N 51°16' E 004°21'0 0.0
2014-Mar-01 20:26N 51°16' E 004°21'0 0.0
2014-Mar-01 19:29N 51°16' E 004°21'0 0.0
2014-Mar-01 17:31N 51°16' E 004°21'0 0.0
2014-Mar-01 16:28N 51°16' E 004°21'0 0.0
2014-Mar-01 15:30N 51°16' E 004°21'0 0.0
2014-Mar-01 14:32N 51°16' E 004°21'0 0.0
2014-Mar-01 13:28N 51°16' E 004°21'0 0.1
2014-Mar-01 12:34N 51°16' E 004°21'1 1.4
2014-Mar-01 11:33N 51°17' E 004°20'4 3.7
2014-Mar-01 10:33N 51°20' E 004°16'8 7.6
2014-Mar-01 09:34N 51°22' E 004°05'5 5.2
2014-Mar-01 08:33N 51°23' E 003°57'7 7.3
2014-Mar-01 07:34N 51°22' E 003°45'7 7.3
2014-Mar-01 06:34N 51°26' E 003°35'6 6.2
2014-Mar-01 05:34N 51°24' E 003°25'7 6.5
2014-Mar-01 04:33N 51°23' E 003°15'8 8.3
2014-Mar-01 03:33N 51°22' E 003°02'9 9.4
2014-Mar-01 02:33N 51°22' E 002°47'8 7.6
2014-Mar-01 01:33N 51°22' E 002°35'9 9.0
2014-Mar-01 00:33N 51°19' E 002°21'1110.7
2014-Feb-28 23:33N 51°13' E 002°07'1110.5
2014-Feb-28 22:33N 51°08' E 001°52'54 7.8
2014-Feb-28 15:33N 50°28' E 000°54'8 8.2
2014-Feb-28 14:32N 50°26' E 000°41'8 8.3
2014-Feb-28 13:33N 50°24' E 000°29'  
2014-Feb-25 16:23N 43°49' W 005°43'5 5.9
2014-Feb-25 15:32N 43°44' W 005°42'4 3.4
2014-Feb-25 14:30N 43°41' W 005°42'1 0.6
2014-Feb-25 13:32N 43°41' W 005°41'1 0.9
2014-Feb-25 12:33N 43°40' W 005°40'1 1.4
2014-Feb-25 11:29N 43°39' W 005°40'1 0.8
2014-Feb-25 10:32N 43°38' W 005°39'2 1.6
2014-Feb-25 09:26N 43°37' W 005°38'0 0.0
2014-Feb-25 06:31N 43°37' W 005°38'0 0.0
2014-Feb-25 04:32N 43°37' W 005°38'0 0.0
2014-Feb-25 00:10N 43°37' W 005°38'0 0.0
2014-Feb-24 20:14N 43°37' W 005°38'0 0.0
2014-Feb-24 19:24N 43°37' W 005°38'0 0.0
2014-Feb-24 18:16N 43°37' W 005°38'0 0.0
2014-Feb-24 14:25N 43°37' W 005°38'0 0.0
2014-Feb-24 13:12N 43°37' W 005°38'0 0.0
2014-Feb-24 12:30N 43°37' W 005°38'0 0.0
2014-Feb-24 11:30N 43°37' W 005°38'0 0.0
2014-Feb-24 10:31N 43°37' W 005°38'0 0.0
2014-Feb-24 09:31N 43°37' W 005°38'0 0.0
2014-Feb-24 07:12N 43°37' W 005°38'0 0.2
2014-Feb-24 06:24N 43°37' W 005°38'0 0.2
2014-Feb-24 05:33N 43°37' W 005°38'3 3.3
2014-Feb-24 04:33N 43°39' W 005°42'  
2014-Feb-21 14:32N 37°47' W 009°36'8 7.7
2014-Feb-21 13:32N 37°40' W 009°32'  
Track history (hours):
 
Tides and Currents Weather Stations Pressure Air Temp Water Temp Dewpoint Dewpoint Depression Visibility Wind Speed Wind Dir Waves Ship Positions

Riroil 1

Last reported at 2014-Mar-02 06:33 UTC. Time now 2014-Jul-29 04:48 UTC.
Position N 51°15' E 004°23'.
Warning: this ship's position is months out of date.

Length 128 m; draft 4.9 m.

Type: Tanker. MMSI: 273446930.

Date/timePositionNaut miles runAvg speedWind from/ knotsBaromVisibWave heightAir tempDewpointWater temp
2014-Mar-02 06:33N 51°15' E 004°23'1 1.0
2014-Mar-02 05:28N 51°16' E 004°21'0 0.0
2014-Mar-02 04:32N 51°16' E 004°21'0 0.0
2014-Mar-02 03:30N 51°16' E 004°21'0 0.0
2014-Mar-02 02:32N 51°16' E 004°21'0 0.0
2014-Mar-02 01:28N 51°16' E 004°21'0 0.0
2014-Mar-02 00:26N 51°16' E 004°21'0 0.0
2014-Mar-01 23:31N 51°16' E 004°21'0 0.0
2014-Mar-01 22:19N 51°16' E 004°21'0 0.0
2014-Mar-01 21:28N 51°16' E 004°21'0 0.0
2014-Mar-01 20:26N 51°16' E 004°21'0 0.0
2014-Mar-01 19:29N 51°16' E 004°21'0 0.0
2014-Mar-01 17:31N 51°16' E 004°21'0 0.0
2014-Mar-01 16:28N 51°16' E 004°21'0 0.0
2014-Mar-01 15:30N 51°16' E 004°21'0 0.0
2014-Mar-01 14:32N 51°16' E 004°21'0 0.0
2014-Mar-01 13:28N 51°16' E 004°21'0 0.1
2014-Mar-01 12:34N 51°16' E 004°21'1 1.4
2014-Mar-01 11:33N 51°17' E 004°20'4 3.7
2014-Mar-01 10:33N 51°20' E 004°16'8 7.6
2014-Mar-01 09:34N 51°22' E 004°05'5 5.2
2014-Mar-01 08:33N 51°23' E 003°57'7 7.3
2014-Mar-01 07:34N 51°22' E 003°45'7 7.3
2014-Mar-01 06:34N 51°26' E 003°35'6 6.2
2014-Mar-01 05:34N 51°24' E 003°25'7 6.5
2014-Mar-01 04:33N 51°23' E 003°15'8 8.3
2014-Mar-01 03:33N 51°22' E 003°02'9 9.4
2014-Mar-01 02:33N 51°22' E 002°47'8 7.6
2014-Mar-01 01:33N 51°22' E 002°35'9 9.0
2014-Mar-01 00:33N 51°19' E 002°21'1110.7
2014-Feb-28 23:33N 51°13' E 002°07'1110.5
2014-Feb-28 22:33N 51°08' E 001°52'54 7.8
2014-Feb-28 15:33N 50°28' E 000°54'8 8.2
2014-Feb-28 14:32N 50°26' E 000°41'8 8.3
2014-Feb-28 13:33N 50°24' E 000°29'  
2014-Feb-25 16:23N 43°49' W 005°43'5 5.9
2014-Feb-25 15:32N 43°44' W 005°42'4 3.4
2014-Feb-25 14:30N 43°41' W 005°42'1 0.6
2014-Feb-25 13:32N 43°41' W 005°41'1 0.9
2014-Feb-25 12:33N 43°40' W 005°40'1 1.4
2014-Feb-25 11:29N 43°39' W 005°40'1 0.8
2014-Feb-25 10:32N 43°38' W 005°39'2 1.6
2014-Feb-25 09:26N 43°37' W 005°38'0 0.0
2014-Feb-25 06:31N 43°37' W 005°38'0 0.0
2014-Feb-25 04:32N 43°37' W 005°38'0 0.0
2014-Feb-25 00:10N 43°37' W 005°38'0 0.0
2014-Feb-24 20:14N 43°37' W 005°38'0 0.0
2014-Feb-24 19:24N 43°37' W 005°38'0 0.0
2014-Feb-24 18:16N 43°37' W 005°38'0 0.0
2014-Feb-24 14:25N 43°37' W 005°38'0 0.0
2014-Feb-24 13:12N 43°37' W 005°38'0 0.0
2014-Feb-24 12:30N 43°37' W 005°38'0 0.0
2014-Feb-24 11:30N 43°37' W 005°38'0 0.0
2014-Feb-24 10:31N 43°37' W 005°38'0 0.0
2014-Feb-24 09:31N 43°37' W 005°38'0 0.0
2014-Feb-24 07:12N 43°37' W 005°38'0 0.2
2014-Feb-24 06:24N 43°37' W 005°38'0 0.2
2014-Feb-24 05:33N 43°37' W 005°38'3 3.3
2014-Feb-24 04:33N 43°39' W 005°42'  
2014-Feb-21 14:32N 37°47' W 009°36'8 7.7
2014-Feb-21 13:32N 37°40' W 009°32'  

Dump ship's entire track history